sensor_id;sensor_type;location;lat;lon;timestamp;temperature;humidity
19536;HTU21D;9913;51.168;4.124;2023-09-19T00:01:43;14.92;99.83
19536;HTU21D;9913;51.168;4.124;2023-09-19T00:04:13;14.87;98.72
19536;HTU21D;9913;51.168;4.124;2023-09-19T00:06:41;14.88;98.81
19536;HTU21D;9913;51.168;4.124;2023-09-19T00:09:11;14.91;99.83
19536;HTU21D;9913;51.168;4.124;2023-09-19T00:11:39;14.87;99.74
19536;HTU21D;9913;51.168;4.124;2023-09-19T00:14:08;14.86;100.19
19536;HTU21D;9913;51.168;4.124;2023-09-19T00:16:36;14.87;99.45
19536;HTU21D;9913;51.168;4.124;2023-09-19T00:19:06;14.84;98.42
19536;HTU21D;9913;51.168;4.124;2023-09-19T00:21:36;14.93;98.04
19536;HTU21D;9913;51.168;4.124;2023-09-19T00:24:06;14.88;99.10
19536;HTU21D;9913;51.168;4.124;2023-09-19T00:26:35;14.73;99.19
19536;HTU21D;9913;51.168;4.124;2023-09-19T00:29:05;14.79;98.66
19536;HTU21D;9913;51.168;4.124;2023-09-19T00:31:35;14.77;97.49
19536;HTU21D;9913;51.168;4.124;2023-09-19T00:34:06;14.80;98.47
19536;HTU21D;9913;51.168;4.124;2023-09-19T00:36:38;14.73;97.51
19536;HTU21D;9913;51.168;4.124;2023-09-19T00:39:06;14.79;98.57
19536;HTU21D;9913;51.168;4.124;2023-09-19T00:41:35;14.65;97.87
19536;HTU21D;9913;51.168;4.124;2023-09-19T00:44:04;14.75;97.31
19536;HTU21D;9913;51.168;4.124;2023-09-19T00:46:32;14.72;98.31
19536;HTU21D;9913;51.168;4.124;2023-09-19T00:49:01;14.77;98.00
19536;HTU21D;9913;51.168;4.124;2023-09-19T00:51:31;14.71;98.46
19536;HTU21D;9913;51.168;4.124;2023-09-19T00:53:59;14.67;98.29
19536;HTU21D;9913;51.168;4.124;2023-09-19T00:56:28;14.68;99.10
19536;HTU21D;9913;51.168;4.124;2023-09-19T00:58:56;14.65;98.67
19536;HTU21D;9913;51.168;4.124;2023-09-19T01:01:25;14.70;98.35
19536;HTU21D;9913;51.168;4.124;2023-09-19T01:03:53;14.67;97.91
19536;HTU21D;9913;51.168;4.124;2023-09-19T01:06:22;14.70;98.00
19536;HTU21D;9913;51.168;4.124;2023-09-19T01:08:52;14.64;97.90
19536;HTU21D;9913;51.168;4.124;2023-09-19T01:11:27;14.70;97.73
19536;HTU21D;9913;51.168;4.124;2023-09-19T01:14:01;14.65;98.77
19536;HTU21D;9913;51.168;4.124;2023-09-19T01:16:38;14.65;98.71
19536;HTU21D;9913;51.168;4.124;2023-09-19T01:19:33;14.68;97.53
19536;HTU21D;9913;51.168;4.124;2023-09-19T01:22:08;14.62;98.09
19536;HTU21D;9913;51.168;4.124;2023-09-19T01:25:01;14.68;98.12
19536;HTU21D;9913;51.168;4.124;2023-09-19T01:27:53;14.63;97.78
19536;HTU21D;9913;51.168;4.124;2023-09-19T01:30:33;14.65;98.42
19536;HTU21D;9913;51.168;4.124;2023-09-19T01:33:05;14.63;98.29
19536;HTU21D;9913;51.168;4.124;2023-09-19T01:35:33;14.60;98.28
19536;HTU21D;9913;51.168;4.124;2023-09-19T01:38:06;14.65;98.33
19536;HTU21D;9913;51.168;4.124;2023-09-19T01:40:41;14.60;98.47
19536;HTU21D;9913;51.168;4.124;2023-09-19T01:43:17;14.59;98.74
19536;HTU21D;9913;51.168;4.124;2023-09-19T01:45:59;14.60;98.48
19536;HTU21D;9913;51.168;4.124;2023-09-19T01:48:38;14.66;98.72
19536;HTU21D;9913;51.168;4.124;2023-09-19T01:51:09;14.57;99.39
19536;HTU21D;9913;51.168;4.124;2023-09-19T01:53:43;14.55;98.48
19536;HTU21D;9913;51.168;4.124;2023-09-19T01:56:18;14.57;98.67
19536;HTU21D;9913;51.168;4.124;2023-09-19T01:58:54;14.58;99.00
19536;HTU21D;9913;51.168;4.124;2023-09-19T02:01:26;14.64;99.09
19536;HTU21D;9913;51.168;4.124;2023-09-19T02:03:55;14.58;99.32
19536;HTU21D;9913;51.168;4.124;2023-09-19T02:06:24;14.54;99.62
19536;HTU21D;9913;51.168;4.124;2023-09-19T02:08:54;14.55;99.27
19536;HTU21D;9913;51.168;4.124;2023-09-19T02:11:22;14.58;99.63
19536;HTU21D;9913;51.168;4.124;2023-09-19T02:13:51;14.53;99.60
19536;HTU21D;9913;51.168;4.124;2023-09-19T02:16:21;14.55;99.97
19536;HTU21D;9913;51.168;4.124;2023-09-19T02:18:51;14.56;100.24
19536;HTU21D;9913;51.168;4.124;2023-09-19T02:21:19;14.59;99.66
19536;HTU21D;9913;51.168;4.124;2023-09-19T02:23:49;14.58;100.11
19536;HTU21D;9913;51.168;4.124;2023-09-19T02:26:18;14.62;100.06
19536;HTU21D;9913;51.168;4.124;2023-09-19T02:28:47;14.62;99.84
19536;HTU21D;9913;51.168;4.124;2023-09-19T02:31:15;14.64;99.77
19536;HTU21D;9913;51.168;4.124;2023-09-19T02:33:45;14.70;100.39
19536;HTU21D;9913;51.168;4.124;2023-09-19T02:36:15;14.65;100.11
19536;HTU21D;9913;51.168;4.124;2023-09-19T02:38:44;14.62;99.50
19536;HTU21D;9913;51.168;4.124;2023-09-19T02:41:13;14.70;99.87
19536;HTU21D;9913;51.168;4.124;2023-09-19T02:43:41;14.73;99.71
19536;HTU21D;9913;51.168;4.124;2023-09-19T02:46:10;14.66;99.71
19536;HTU21D;9913;51.168;4.124;2023-09-19T02:48:39;14.72;99.31
19536;HTU21D;9913;51.168;4.124;2023-09-19T02:51:08;14.73;99.26
19536;HTU21D;9913;51.168;4.124;2023-09-19T02:53:38;14.78;99.35
19536;HTU21D;9913;51.168;4.124;2023-09-19T02:56:07;14.78;99.74
19536;HTU21D;9913;51.168;4.124;2023-09-19T02:58:36;14.81;99.56
19536;HTU21D;9913;51.168;4.124;2023-09-19T03:01:08;14.93;99.38
19536;HTU21D;9913;51.168;4.124;2023-09-19T03:03:38;14.92;99.42
19536;HTU21D;9913;51.168;4.124;2023-09-19T03:06:08;14.94;99.25
19536;HTU21D;9913;51.168;4.124;2023-09-19T03:08:38;14.92;100.07
19536;HTU21D;9913;51.168;4.124;2023-09-19T03:11:10;14.97;99.58
19536;HTU21D;9913;51.168;4.124;2023-09-19T03:13:42;14.98;99.71
19536;HTU21D;9913;51.168;4.124;2023-09-19T03:16:13;15.01;99.51
19536;HTU21D;9913;51.168;4.124;2023-09-19T03:18:42;15.06;99.51
19536;HTU21D;9913;51.168;4.124;2023-09-19T03:21:12;15.01;99.75
19536;HTU21D;9913;51.168;4.124;2023-09-19T03:23:43;14.97;100.51
19536;HTU21D;9913;51.168;4.124;2023-09-19T03:26:13;14.94;101.09
19536;HTU21D;9913;51.168;4.124;2023-09-19T03:28:43;14.80;101.63
19536;HTU21D;9913;51.168;4.124;2023-09-19T03:31:13;14.81;101.54
19536;HTU21D;9913;51.168;4.124;2023-09-19T03:33:42;14.73;101.83
19536;HTU21D;9913;51.168;4.124;2023-09-19T03:36:10;14.79;102.01
19536;HTU21D;9913;51.168;4.124;2023-09-19T03:38:43;14.75;101.71
19536;HTU21D;9913;51.168;4.124;2023-09-19T03:41:12;14.78;102.17
19536;HTU21D;9913;51.168;4.124;2023-09-19T03:43:42;14.82;102.28
19536;HTU21D;9913;51.168;4.124;2023-09-19T03:46:10;14.83;102.54
19536;HTU21D;9913;51.168;4.124;2023-09-19T03:48:40;14.73;103.02
19536;HTU21D;9913;51.168;4.124;2023-09-19T03:51:09;14.65;103.02
19536;HTU21D;9913;51.168;4.124;2023-09-19T03:53:38;14.58;103.60
19536;HTU21D;9913;51.168;4.124;2023-09-19T03:56:08;14.67;103.57
19536;HTU21D;9913;51.168;4.124;2023-09-19T03:58:37;14.67;103.30
19536;HTU21D;9913;51.168;4.124;2023-09-19T04:01:06;14.75;103.37
19536;HTU21D;9913;51.168;4.124;2023-09-19T04:03:35;14.67;103.44
19536;HTU21D;9913;51.168;4.124;2023-09-19T04:06:13;14.66;103.72
19536;HTU21D;9913;51.168;4.124;2023-09-19T04:08:42;14.68;103.95
19536;HTU21D;9913;51.168;4.124;2023-09-19T04:11:13;14.56;103.70
19536;HTU21D;9913;51.168;4.124;2023-09-19T04:13:42;14.49;103.47
19536;HTU21D;9913;51.168;4.124;2023-09-19T04:16:10;14.43;103.61
19536;HTU21D;9913;51.168;4.124;2023-09-19T04:18:39;14.48;103.58
19536;HTU21D;9913;51.168;4.124;2023-09-19T04:21:08;14.41;103.70
19536;HTU21D;9913;51.168;4.124;2023-09-19T04:23:37;14.34;103.78
19536;HTU21D;9913;51.168;4.124;2023-09-19T04:26:05;14.43;103.95
19536;HTU21D;9913;51.168;4.124;2023-09-19T04:28:36;14.38;103.85
19536;HTU21D;9913;51.168;4.124;2023-09-19T04:31:06;14.32;104.01
19536;HTU21D;9913;51.168;4.124;2023-09-19T04:33:37;14.32;103.95
19536;HTU21D;9913;51.168;4.124;2023-09-19T04:36:06;14.30;103.76
19536;HTU21D;9913;51.168;4.124;2023-09-19T04:38:55;14.36;103.94
19536;HTU21D;9913;51.168;4.124;2023-09-19T04:41:23;14.39;104.16
19536;HTU21D;9913;51.168;4.124;2023-09-19T04:43:53;14.36;103.88
19536;HTU21D;9913;51.168;4.124;2023-09-19T04:46:21;14.36;103.97
19536;HTU21D;9913;51.168;4.124;2023-09-19T04:48:50;14.39;103.86
19536;HTU21D;9913;51.168;4.124;2023-09-19T04:51:18;14.36;103.99
19536;HTU21D;9913;51.168;4.124;2023-09-19T04:53:48;14.38;103.89
19536;HTU21D;9913;51.168;4.124;2023-09-19T04:56:18;14.39;103.68
19536;HTU21D;9913;51.168;4.124;2023-09-19T04:58:48;14.33;103.81
19536;HTU21D;9913;51.168;4.124;2023-09-19T05:01:17;14.37;103.99
19536;HTU21D;9913;51.168;4.124;2023-09-19T05:03:46;14.33;104.12
19536;HTU21D;9913;51.168;4.124;2023-09-19T05:06:19;14.38;103.86
19536;HTU21D;9913;51.168;4.124;2023-09-19T05:08:48;14.32;103.91
19536;HTU21D;9913;51.168;4.124;2023-09-19T05:11:18;14.33;103.94
19536;HTU21D;9913;51.168;4.124;2023-09-19T05:13:48;14.34;103.83
19536;HTU21D;9913;51.168;4.124;2023-09-19T05:16:19;14.35;103.99
19536;HTU21D;9913;51.168;4.124;2023-09-19T05:18:47;14.26;103.94
19536;HTU21D;9913;51.168;4.124;2023-09-19T05:21:16;14.28;104.15
19536;HTU21D;9913;51.168;4.124;2023-09-19T05:23:45;14.30;104.15
19536;HTU21D;9913;51.168;4.124;2023-09-19T05:26:14;14.32;104.14
19536;HTU21D;9913;51.168;4.124;2023-09-19T05:28:43;14.26;104.15
19536;HTU21D;9913;51.168;4.124;2023-09-19T05:31:11;14.28;104.19
19536;HTU21D;9913;51.168;4.124;2023-09-19T05:33:41;14.32;104.50
19536;HTU21D;9913;51.168;4.124;2023-09-19T05:36:09;14.24;104.38
19536;HTU21D;9913;51.168;4.124;2023-09-19T05:38:39;14.33;104.36
19536;HTU21D;9913;51.168;4.124;2023-09-19T05:41:09;14.35;104.34
19536;HTU21D;9913;51.168;4.124;2023-09-19T05:43:41;14.24;104.34
19536;HTU21D;9913;51.168;4.124;2023-09-19T05:46:09;14.36;104.44
19536;HTU21D;9913;51.168;4.124;2023-09-19T05:48:38;14.41;104.31
19536;HTU21D;9913;51.168;4.124;2023-09-19T05:51:09;14.43;104.47
19536;HTU21D;9913;51.168;4.124;2023-09-19T05:53:38;14.41;104.34
19536;HTU21D;9913;51.168;4.124;2023-09-19T05:56:06;14.51;104.29
19536;HTU21D;9913;51.168;4.124;2023-09-19T05:58:36;14.45;104.09
19536;HTU21D;9913;51.168;4.124;2023-09-19T06:01:05;14.50;104.18
19536;HTU21D;9913;51.168;4.124;2023-09-19T06:03:34;14.49;104.29
19536;HTU21D;9913;51.168;4.124;2023-09-19T06:06:06;14.54;104.15
19536;HTU21D;9913;51.168;4.124;2023-09-19T06:08:36;14.52;104.38
19536;HTU21D;9913;51.168;4.124;2023-09-19T06:11:04;14.55;104.40
19536;HTU21D;9913;51.168;4.124;2023-09-19T06:13:34;14.60;104.40
19536;HTU21D;9913;51.168;4.124;2023-09-19T06:16:03;14.62;104.28
19536;HTU21D;9913;51.168;4.124;2023-09-19T06:18:32;14.66;104.27
19536;HTU21D;9913;51.168;4.124;2023-09-19T06:21:01;14.67;104.34
19536;HTU21D;9913;51.168;4.124;2023-09-19T06:23:33;14.59;104.23
19536;HTU21D;9913;51.168;4.124;2023-09-19T06:26:03;14.70;104.27
19536;HTU21D;9913;51.168;4.124;2023-09-19T06:28:33;14.74;104.03
19536;HTU21D;9913;51.168;4.124;2023-09-19T06:31:02;14.79;104.52
19536;HTU21D;9913;51.168;4.124;2023-09-19T06:33:30;14.83;104.25
19536;HTU21D;9913;51.168;4.124;2023-09-19T06:35:59;14.89;104.34
19536;HTU21D;9913;51.168;4.124;2023-09-19T06:38:27;14.72;103.91
19536;HTU21D;9913;51.168;4.124;2023-09-19T06:40:55;14.85;104.23
19536;HTU21D;9913;51.168;4.124;2023-09-19T06:43:25;14.92;104.23
19536;HTU21D;9913;51.168;4.124;2023-09-19T06:45:54;14.91;104.03
19536;HTU21D;9913;51.168;4.124;2023-09-19T06:48:23;14.94;104.28
19536;HTU21D;9913;51.168;4.124;2023-09-19T06:50:53;14.92;103.95
19536;HTU21D;9913;51.168;4.124;2023-09-19T06:53:22;14.99;104.13
19536;HTU21D;9913;51.168;4.124;2023-09-19T06:55:51;15.10;103.99
19536;HTU21D;9913;51.168;4.124;2023-09-19T06:58:20;15.09;104.02
19536;HTU21D;9913;51.168;4.124;2023-09-19T07:00:50;15.11;104.02
19536;HTU21D;9913;51.168;4.124;2023-09-19T07:03:18;15.22;103.98
19536;HTU21D;9913;51.168;4.124;2023-09-19T07:05:48;15.13;103.82
19536;HTU21D;9913;51.168;4.124;2023-09-19T07:08:18;15.11;104.29
19536;HTU21D;9913;51.168;4.124;2023-09-19T07:10:47;15.13;103.86
19536;HTU21D;9913;51.168;4.124;2023-09-19T07:13:16;15.31;103.79
19536;HTU21D;9913;51.168;4.124;2023-09-19T07:15:45;15.46;103.65
19536;HTU21D;9913;51.168;4.124;2023-09-19T07:18:19;15.45;103.84
19536;HTU21D;9913;51.168;4.124;2023-09-19T07:20:47;15.53;103.43
19536;HTU21D;9913;51.168;4.124;2023-09-19T07:23:20;15.54;103.29
19536;HTU21D;9913;51.168;4.124;2023-09-19T07:25:50;15.70;103.51
19536;HTU21D;9913;51.168;4.124;2023-09-19T07:28:18;15.60;103.03
19536;HTU21D;9913;51.168;4.124;2023-09-19T07:30:47;15.65;103.21
19536;HTU21D;9913;51.168;4.124;2023-09-19T07:33:15;15.77;103.11
19536;HTU21D;9913;51.168;4.124;2023-09-19T07:35:47;15.76;103.31
19536;HTU21D;9913;51.168;4.124;2023-09-19T07:38:15;15.85;103.04
19536;HTU21D;9913;51.168;4.124;2023-09-19T07:40:43;15.77;102.83
19536;HTU21D;9913;51.168;4.124;2023-09-19T07:43:12;15.90;102.68
19536;HTU21D;9913;51.168;4.124;2023-09-19T07:45:40;15.97;102.57
19536;HTU21D;9913;51.168;4.124;2023-09-19T07:48:08;16.02;103.00
19536;HTU21D;9913;51.168;4.124;2023-09-19T07:50:41;16.02;102.50
19536;HTU21D;9913;51.168;4.124;2023-09-19T07:53:13;16.15;102.43
19536;HTU21D;9913;51.168;4.124;2023-09-19T07:55:43;16.22;102.55
19536;HTU21D;9913;51.168;4.124;2023-09-19T07:58:15;16.29;102.36
19536;HTU21D;9913;51.168;4.124;2023-09-19T08:00:43;16.27;101.89
19536;HTU21D;9913;51.168;4.124;2023-09-19T08:03:13;16.33;101.80
19536;HTU21D;9913;51.168;4.124;2023-09-19T08:05:44;16.27;101.76
19536;HTU21D;9913;51.168;4.124;2023-09-19T08:08:14;16.39;101.44
19536;HTU21D;9913;51.168;4.124;2023-09-19T08:10:43;16.60;102.07
19536;HTU21D;9913;51.168;4.124;2023-09-19T08:13:16;16.70;101.57
19536;HTU21D;9913;51.168;4.124;2023-09-19T08:15:45;16.82;101.41
19536;HTU21D;9913;51.168;4.124;2023-09-19T08:18:15;17.04;101.13
19536;HTU21D;9913;51.168;4.124;2023-09-19T08:20:43;17.17;100.81
19536;HTU21D;9913;51.168;4.124;2023-09-19T08:23:19;17.35;100.41
19536;HTU21D;9913;51.168;4.124;2023-09-19T08:25:48;17.41;100.74
19536;HTU21D;9913;51.168;4.124;2023-09-19T08:28:16;17.34;99.77
19536;HTU21D;9913;51.168;4.124;2023-09-19T08:30:49;17.43;100.19
19536;HTU21D;9913;51.168;4.124;2023-09-19T08:33:18;17.53;100.22
19536;HTU21D;9913;51.168;4.124;2023-09-19T08:35:46;17.73;99.78
19536;HTU21D;9913;51.168;4.124;2023-09-19T08:38:14;17.61;99.45
19536;HTU21D;9913;51.168;4.124;2023-09-19T08:40:45;17.55;99.07
19536;HTU21D;9913;51.168;4.124;2023-09-19T08:43:14;17.64;99.33
19536;HTU21D;9913;51.168;4.124;2023-09-19T08:45:42;17.46;99.25
19536;HTU21D;9913;51.168;4.124;2023-09-19T08:48:17;17.44;99.48
19536;HTU21D;9913;51.168;4.124;2023-09-19T08:50:51;17.43;100.38
19536;HTU21D;9913;51.168;4.124;2023-09-19T08:53:27;17.22;99.23
19536;HTU21D;9913;51.168;4.124;2023-09-19T08:55:59;17.28;99.51
19536;HTU21D;9913;51.168;4.124;2023-09-19T08:58:34;17.29;99.91
19536;HTU21D;9913;51.168;4.124;2023-09-19T09:01:08;17.18;99.37
19536;HTU21D;9913;51.168;4.124;2023-09-19T09:03:40;17.26;99.11
19536;HTU21D;9913;51.168;4.124;2023-09-19T09:06:16;17.23;99.22
19536;HTU21D;9913;51.168;4.124;2023-09-19T09:08:46;17.40;99.39
19536;HTU21D;9913;51.168;4.124;2023-09-19T09:11:16;17.45;99.44
19536;HTU21D;9913;51.168;4.124;2023-09-19T09:13:45;17.47;98.84
19536;HTU21D;9913;51.168;4.124;2023-09-19T09:16:14;17.50;99.00
19536;HTU21D;9913;51.168;4.124;2023-09-19T09:18:46;17.53;97.74
19536;HTU21D;9913;51.168;4.124;2023-09-19T09:21:20;17.49;97.97
19536;HTU21D;9913;51.168;4.124;2023-09-19T09:23:49;17.53;97.76
19536;HTU21D;9913;51.168;4.124;2023-09-19T09:26:42;17.55;97.67
19536;HTU21D;9913;51.168;4.124;2023-09-19T09:29:11;17.55;97.79
19536;HTU21D;9913;51.168;4.124;2023-09-19T09:31:41;17.69;96.84
19536;HTU21D;9913;51.168;4.124;2023-09-19T09:34:11;17.68;97.86
19536;HTU21D;9913;51.168;4.124;2023-09-19T09:36:41;17.81;96.46
19536;HTU21D;9913;51.168;4.124;2023-09-19T09:39:09;18.03;96.28
19536;HTU21D;9913;51.168;4.124;2023-09-19T09:41:46;18.03;96.22
19536;HTU21D;9913;51.168;4.124;2023-09-19T09:44:16;18.26;95.77
19536;HTU21D;9913;51.168;4.124;2023-09-19T09:46:45;18.36;96.10
19536;HTU21D;9913;51.168;4.124;2023-09-19T09:49:48;18.44;95.72
19536;HTU21D;9913;51.168;4.124;2023-09-19T09:52:44;18.38;95.14
19536;HTU21D;9913;51.168;4.124;2023-09-19T09:55:13;18.38;94.98
19536;HTU21D;9913;51.168;4.124;2023-09-19T09:57:42;18.50;95.94
19536;HTU21D;9913;51.168;4.124;2023-09-19T10:00:12;18.58;95.23
19536;HTU21D;9913;51.168;4.124;2023-09-19T10:02:48;18.56;95.79
19536;HTU21D;9913;51.168;4.124;2023-09-19T10:05:17;18.53;95.17
19536;HTU21D;9913;51.168;4.124;2023-09-19T10:07:50;18.71;95.46
19536;HTU21D;9913;51.168;4.124;2023-09-19T10:10:30;18.88;95.43
19536;HTU21D;9913;51.168;4.124;2023-09-19T10:13:09;19.02;94.98
19536;HTU21D;9913;51.168;4.124;2023-09-19T10:15:39;19.21;95.25
19536;HTU21D;9913;51.168;4.124;2023-09-19T10:18:14;19.18;95.22
19536;HTU21D;9913;51.168;4.124;2023-09-19T10:20:45;19.29;94.58
19536;HTU21D;9913;51.168;4.124;2023-09-19T10:23:17;19.37;94.96
19536;HTU21D;9913;51.168;4.124;2023-09-19T10:25:50;19.16;95.39
19536;HTU21D;9913;51.168;4.124;2023-09-19T10:28:21;19.23;94.30
19536;HTU21D;9913;51.168;4.124;2023-09-19T10:30:51;19.30;93.65
19536;HTU21D;9913;51.168;4.124;2023-09-19T10:33:22;19.25;93.69
19536;HTU21D;9913;51.168;4.124;2023-09-19T10:35:54;19.37;93.95
19536;HTU21D;9913;51.168;4.124;2023-09-19T10:38:26;19.16;93.17
19536;HTU21D;9913;51.168;4.124;2023-09-19T10:40:56;19.41;93.54
19536;HTU21D;9913;51.168;4.124;2023-09-19T10:43:31;20.05;95.39
19536;HTU21D;9913;51.168;4.124;2023-09-19T10:46:06;20.10;92.13
19536;HTU21D;9913;51.168;4.124;2023-09-19T10:48:38;19.88;93.21
19536;HTU21D;9913;51.168;4.124;2023-09-19T10:51:10;20.13;92.27
19536;HTU21D;9913;51.168;4.124;2023-09-19T10:53:45;20.18;92.80
19536;HTU21D;9913;51.168;4.124;2023-09-19T10:56:21;20.59;91.79
19536;HTU21D;9913;51.168;4.124;2023-09-19T10:59:05;20.66;92.72
19536;HTU21D;9913;51.168;4.124;2023-09-19T11:01:44;20.90;91.47
19536;HTU21D;9913;51.168;4.124;2023-09-19T11:04:26;20.47;90.91
19536;HTU21D;9913;51.168;4.124;2023-09-19T11:07:03;20.78;92.30
19536;HTU21D;9913;51.168;4.124;2023-09-19T11:09:46;20.72;90.94
19536;HTU21D;9913;51.168;4.124;2023-09-19T11:12:51;20.77;91.33
19536;HTU21D;9913;51.168;4.124;2023-09-19T11:18:55;20.58;90.96
19536;HTU21D;9913;51.168;4.124;2023-09-19T11:21:53;20.81;92.35
19536;HTU21D;9913;51.168;4.124;2023-09-19T11:24:32;20.15;91.11
19536;HTU21D;9913;51.168;4.124;2023-09-19T11:27:11;20.18;91.59
19536;HTU21D;9913;51.168;4.124;2023-09-19T11:29:41;20.43;91.28
19536;HTU21D;9913;51.168;4.124;2023-09-19T11:32:09;20.24;90.82
19536;HTU21D;9913;51.168;4.124;2023-09-19T11:34:44;20.40;92.34
19536;HTU21D;9913;51.168;4.124;2023-09-19T11:40:46;20.21;91.31
19536;HTU21D;9913;51.168;4.124;2023-09-19T11:43:32;20.14;92.59
19536;HTU21D;9913;51.168;4.124;2023-09-19T11:46:05;19.96;91.33
19536;HTU21D;9913;51.168;4.124;2023-09-19T11:48:38;20.06;91.56
19536;HTU21D;9913;51.168;4.124;2023-09-19T11:51:14;20.03;91.66
19536;HTU21D;9913;51.168;4.124;2023-09-19T11:53:47;19.97;91.41
19536;HTU21D;9913;51.168;4.124;2023-09-19T11:56:17;20.29;91.96
19536;HTU21D;9913;51.168;4.124;2023-09-19T11:58:49;20.29;91.43
19536;HTU21D;9913;51.168;4.124;2023-09-19T12:01:24;20.07;91.90
19536;HTU21D;9913;51.168;4.124;2023-09-19T12:03:57;19.95;92.73
19536;HTU21D;9913;51.168;4.124;2023-09-19T12:06:29;20.18;91.63
19536;HTU21D;9913;51.168;4.124;2023-09-19T12:08:59;20.29;92.53
19536;HTU21D;9913;51.168;4.124;2023-09-19T12:11:29;20.17;92.92
19536;HTU21D;9913;51.168;4.124;2023-09-19T12:14:01;20.02;91.85
19536;HTU21D;9913;51.168;4.124;2023-09-19T12:16:31;19.79;91.14
19536;HTU21D;9913;51.168;4.124;2023-09-19T12:19:19;19.81;91.08
19536;HTU21D;9913;51.168;4.124;2023-09-19T12:21:58;19.79;91.63
19536;HTU21D;9913;51.168;4.124;2023-09-19T12:24:32;20.02;91.21
19536;HTU21D;9913;51.168;4.124;2023-09-19T12:27:05;19.95;92.22
19536;HTU21D;9913;51.168;4.124;2023-09-19T12:29:43;19.96;91.78
19536;HTU21D;9913;51.168;4.124;2023-09-19T12:32:12;19.91;90.85
19536;HTU21D;9913;51.168;4.124;2023-09-19T12:34:41;19.87;91.21
19536;HTU21D;9913;51.168;4.124;2023-09-19T12:37:13;19.83;92.21
19536;HTU21D;9913;51.168;4.124;2023-09-19T12:39:44;19.86;91.99
19536;HTU21D;9913;51.168;4.124;2023-09-19T12:42:17;19.84;91.72
19536;HTU21D;9913;51.168;4.124;2023-09-19T12:44:47;19.81;91.79
19536;HTU21D;9913;51.168;4.124;2023-09-19T12:47:17;19.75;92.04
19536;HTU21D;9913;51.168;4.124;2023-09-19T12:50:06;19.94;92.23
19536;HTU21D;9913;51.168;4.124;2023-09-19T12:52:42;20.06;91.56
19536;HTU21D;9913;51.168;4.124;2023-09-19T12:55:23;20.10;91.43
19536;HTU21D;9913;51.168;4.124;2023-09-19T12:58:12;20.04;91.01
19536;HTU21D;9913;51.168;4.124;2023-09-19T13:00:43;20.03;91.18
19536;HTU21D;9913;51.168;4.124;2023-09-19T13:03:14;19.86;91.56
19536;HTU21D;9913;51.168;4.124;2023-09-19T13:05:50;19.80;91.52
19536;HTU21D;9913;51.168;4.124;2023-09-19T13:08:21;19.83;91.30
19536;HTU21D;9913;51.168;4.124;2023-09-19T13:11:04;19.98;91.85
19536;HTU21D;9913;51.168;4.124;2023-09-19T13:13:38;19.85;90.77
19536;HTU21D;9913;51.168;4.124;2023-09-19T13:16:08;19.84;91.11
19536;HTU21D;9913;51.168;4.124;2023-09-19T13:18:42;19.79;91.31
19536;HTU21D;9913;51.168;4.124;2023-09-19T13:21:12;19.79;90.76
19536;HTU21D;9913;51.168;4.124;2023-09-19T13:23:51;19.82;91.68
19536;HTU21D;9913;51.168;4.124;2023-09-19T13:26:21;19.89;91.78
19536;HTU21D;9913;51.168;4.124;2023-09-19T13:28:49;19.88;92.37
19536;HTU21D;9913;51.168;4.124;2023-09-19T13:31:18;20.06;91.39
19536;HTU21D;9913;51.168;4.124;2023-09-19T13:33:47;20.31;91.54
19536;HTU21D;9913;51.168;4.124;2023-09-19T13:36:17;20.49;90.51
19536;HTU21D;9913;51.168;4.124;2023-09-19T13:38:46;20.95;90.10
19536;HTU21D;9913;51.168;4.124;2023-09-19T13:41:18;20.83;90.64
19536;HTU21D;9913;51.168;4.124;2023-09-19T13:43:46;20.66;90.06
19536;HTU21D;9913;51.168;4.124;2023-09-19T13:46:16;20.49;91.19
19536;HTU21D;9913;51.168;4.124;2023-09-19T13:48:52;20.75;91.59
19536;HTU21D;9913;51.168;4.124;2023-09-19T13:51:25;21.04;89.96
19536;HTU21D;9913;51.168;4.124;2023-09-19T13:53:54;21.58;89.57
19536;HTU21D;9913;51.168;4.124;2023-09-19T13:56:23;21.48;88.57
19536;HTU21D;9913;51.168;4.124;2023-09-19T13:58:53;21.22;88.74
19536;HTU21D;9913;51.168;4.124;2023-09-19T14:01:22;21.03;89.57
19536;HTU21D;9913;51.168;4.124;2023-09-19T14:03:50;20.71;89.75
19536;HTU21D;9913;51.168;4.124;2023-09-19T14:06:20;20.64;90.19
19536;HTU21D;9913;51.168;4.124;2023-09-19T14:08:48;20.46;90.49
19536;HTU21D;9913;51.168;4.124;2023-09-19T14:11:17;20.41;90.89
19536;HTU21D;9913;51.168;4.124;2023-09-19T14:13:46;20.30;91.42
19536;HTU21D;9913;51.168;4.124;2023-09-19T14:16:16;20.12;91.49
19536;HTU21D;9913;51.168;4.124;2023-09-19T14:18:45;20.02;91.41
19536;HTU21D;9913;51.168;4.124;2023-09-19T14:21:14;19.85;91.29
19536;HTU21D;9913;51.168;4.124;2023-09-19T14:23:42;19.84;91.64
19536;HTU21D;9913;51.168;4.124;2023-09-19T14:26:11;19.89;92.53
19536;HTU21D;9913;51.168;4.124;2023-09-19T14:28:39;19.95;91.60
19536;HTU21D;9913;51.168;4.124;2023-09-19T14:31:10;19.98;91.39
19536;HTU21D;9913;51.168;4.124;2023-09-19T14:33:38;20.01;91.25
19536;HTU21D;9913;51.168;4.124;2023-09-19T14:36:09;20.00;91.62
19536;HTU21D;9913;51.168;4.124;2023-09-19T14:38:38;19.91;91.80
19536;HTU21D;9913;51.168;4.124;2023-09-19T14:41:07;19.77;91.59
19536;HTU21D;9913;51.168;4.124;2023-09-19T14:43:36;19.72;92.02
19536;HTU21D;9913;51.168;4.124;2023-09-19T14:46:05;19.54;91.84
19536;HTU21D;9913;51.168;4.124;2023-09-19T14:48:36;19.42;92.17
19536;HTU21D;9913;51.168;4.124;2023-09-19T14:51:05;19.43;92.35
19536;HTU21D;9913;51.168;4.124;2023-09-19T14:53:36;19.33;92.09
19536;HTU21D;9913;51.168;4.124;2023-09-19T14:56:07;19.28;92.18
19536;HTU21D;9913;51.168;4.124;2023-09-19T14:58:37;19.32;92.29
19536;HTU21D;9913;51.168;4.124;2023-09-19T15:01:08;19.24;92.31
19536;HTU21D;9913;51.168;4.124;2023-09-19T15:03:39;19.29;91.91
19536;HTU21D;9913;51.168;4.124;2023-09-19T15:06:10;19.25;92.34
19536;HTU21D;9913;51.168;4.124;2023-09-19T15:08:41;19.29;91.92
19536;HTU21D;9913;51.168;4.124;2023-09-19T15:11:15;19.23;91.98
19536;HTU21D;9913;51.168;4.124;2023-09-19T15:13:45;19.26;92.33
19536;HTU21D;9913;51.168;4.124;2023-09-19T15:16:14;19.31;92.66
19536;HTU21D;9913;51.168;4.124;2023-09-19T15:18:45;19.41;91.66
19536;HTU21D;9913;51.168;4.124;2023-09-19T15:21:15;19.52;91.69
19536;HTU21D;9913;51.168;4.124;2023-09-19T15:23:44;19.46;92.00
19536;HTU21D;9913;51.168;4.124;2023-09-19T15:26:14;19.41;91.57
19536;HTU21D;9913;51.168;4.124;2023-09-19T15:28:47;19.35;91.99
19536;HTU21D;9913;51.168;4.124;2023-09-19T15:31:16;19.33;91.79
19536;HTU21D;9913;51.168;4.124;2023-09-19T15:33:46;19.22;92.62
19536;HTU21D;9913;51.168;4.124;2023-09-19T15:36:15;19.18;91.84
19536;HTU21D;9913;51.168;4.124;2023-09-19T15:38:57;19.05;92.87
19536;HTU21D;9913;51.168;4.124;2023-09-19T15:41:27;19.08;92.51
19536;HTU21D;9913;51.168;4.124;2023-09-19T15:43:56;19.07;92.35
19536;HTU21D;9913;51.168;4.124;2023-09-19T15:46:25;19.07;92.93
19536;HTU21D;9913;51.168;4.124;2023-09-19T15:48:56;19.01;92.66
19536;HTU21D;9913;51.168;4.124;2023-09-19T15:51:25;19.01;93.09
19536;HTU21D;9913;51.168;4.124;2023-09-19T15:53:54;19.02;93.05
19536;HTU21D;9913;51.168;4.124;2023-09-19T15:56:24;19.01;93.49
19536;HTU21D;9913;51.168;4.124;2023-09-19T15:58:54;18.99;92.89